Chalgrove, United Kingdom
Current Conditions -  °F | °C
As of 11:52 AM on Thursday 30 Oct 2014 (Local Time) from EGUB Reporting Station
Broken Clouds Broken Clouds  
Wind Chill: 63°   Ceiling: 1200
Heat Index: 63°   Visibility: 6mi
Dew Point: 57°   Wind: 12mph
Humidity: 82%   Direction: 160°SSE
Pressure: 30.06"   Gusts: NA
Location:  51.66°N, 1.08°W
Report Text: EGUB 301152Z 16010KT 9999 BKN012 BKN018 17/14 Q1018 GRN TEMPO FEW012 BKN020 WHT
Loading
Personal Weather Stations






























Interactive Weather Map New forecast layout! Learn more

10-Day Weather Forecast

Advertisements
Track Severe Weather on mobile